Time;durP1;ratioP1;P1;durP2;ratioP2;P2;SDS_P1;SDS_P2;PMS_P1;PMS_P2;Temp;Humidity;BMP_temperature;BMP_pressure;BME280_temperature;BME280_humidity;BME280_pressure;Samples;Min_cycle;Max_cycle;Signal;HPM_P1;HPM_P2
2023/03/22 00:04:43;;;;;;;;;;;;;;;9.71;100.00;100896.47;10417633;28;20280;-64
2023/03/22 00:09:45;;;;;;;;;;;;;;;9.79;100.00;100890.84;10399272;28;19929;-64
2023/03/22 00:14:48;;;;;;;;;;;;;;;9.63;100.00;100889.03;10417900;28;19932;-64
2023/03/22 00:19:53;;;;;;;;;;;;;;;9.54;100.00;100894.72;10417133;28;19933;-64
2023/03/22 00:24:55;;;;;;;;;;;;;;;9.57;100.00;100881.50;10417576;28;19929;-64
2023/03/22 00:29:57;;;;;;;;;;;;;;;9.54;100.00;100879.03;10416144;28;19952;-64
2023/03/22 00:35:00;;;;;;;;;;;;;;;9.37;100.00;100872.06;10417148;28;19925;-64
2023/03/22 00:40:10;;;;;;;;;;;;;;;9.34;100.00;100867.00;10416322;28;19955;-65
2023/03/22 00:45:12;;;;;;;;;;;;;;;9.45;100.00;100864.69;10397977;28;20380;-64
2023/03/22 00:50:14;;;;;;;;;;;;;;;9.47;100.00;100856.78;10415446;28;19935;-64
2023/03/22 00:55:17;;;;;;;;;;;;;;;9.36;100.00;100843.41;10415904;28;19932;-65
2023/03/22 01:00:19;;;;;;;;;;;;;;;9.50;100.00;100838.31;10397668;28;19925;-64
2023/03/22 01:05:21;;;;;;;;;;;;;;;9.52;100.00;100844.31;10416256;28;19940;-64
2023/03/22 01:10:23;;;;;;;;;;;;;;;9.30;100.00;100834.13;10414149;28;20380;-65
2023/03/22 01:15:25;;;;;;;;;;;;;;;9.29;100.00;100825.41;10416074;28;19929;-64
2023/03/22 01:20:28;;;;;;;;;;;;;;;8.95;100.00;100820.25;10415304;28;19925;-64
2023/03/22 01:25:30;;;;;;;;;;;;;;;9.18;100.00;100808.59;10398547;28;19925;-64
2023/03/22 01:30:32;;;;;;;;;;;;;;;8.90;100.00;100808.25;10414658;28;19932;-64
2023/03/22 01:35:35;;;;;;;;;;;;;;;8.97;100.00;100802.72;10415701;28;19979;-64
2023/03/22 01:40:37;;;;;;;;;;;;;;;8.81;100.00;100790.44;10414885;28;19925;-64
2023/03/22 01:45:43;;;;;;;;;;;;;;;8.97;100.00;100781.84;10398071;28;19925;-65
2023/03/22 01:50:47;;;;;;;;;;;;;;;9.07;100.00;100764.78;10396583;28;20285;-65
2023/03/22 01:55:49;;;;;;;;;;;;;;;9.01;100.00;100752.88;10400069;28;19937;-65
2023/03/22 02:00:52;;;;;;;;;;;;;;;9.11;100.00;100746.25;10421300;28;20368;-65
2023/03/22 02:05:55;;;;;;;;;;;;;;;9.22;100.00;100737.00;10423030;28;19952;-65
2023/03/22 02:10:57;;;;;;;;;;;;;;;9.13;100.00;100733.13;10403931;28;19925;-65
2023/03/22 02:16:06;;;;;;;;;;;;;;;9.12;100.00;100726.19;10405121;28;19925;-65
2023/03/22 02:21:11;;;;;;;;;;;;;;;9.17;100.00;100716.34;10404280;28;19979;-65
2023/03/22 02:26:14;;;;;;;;;;;;;;;9.12;100.00;100702.69;10422253;28;19979;-65
2023/03/22 02:31:16;;;;;;;;;;;;;;;9.16;100.00;100705.97;10420266;28;19932;-65
2023/03/22 02:36:37;;;;;;;;;;;;;;;9.15;100.00;100707.75;10403551;28;19960;-65
2023/03/22 02:41:40;;;;;;;;;;;;;;;9.36;100.00;100708.38;10420273;28;19925;-65
2023/03/22 02:46:42;;;;;;;;;;;;;;;9.34;100.00;100694.56;10421399;28;19979;-65
2023/03/22 02:51:46;;;;;;;;;;;;;;;9.29;100.00;100692.19;10419953;28;19925;-65
2023/03/22 02:56:55;;;;;;;;;;;;;;;9.49;100.00;100693.72;10402875;28;19979;-65
2023/03/22 03:01:58;;;;;;;;;;;;;;;9.39;100.00;100691.69;10402073;28;20331;-65
2023/03/22 03:07:04;;;;;;;;;;;;;;;9.59;100.00;100681.00;10419252;28;19928;-65
2023/03/22 03:12:19;;;;;;;;;;;;;;;9.63;100.00;100679.91;10420393;28;19929;-65
2023/03/22 03:17:22;;;;;;;;;;;;;;;9.73;100.00;100672.38;10418327;28;19925;-65
2023/03/22 03:22:29;;;;;;;;;;;;;;;9.72;100.00;100662.03;10401301;28;20388;-65
2023/03/22 03:27:34;;;;;;;;;;;;;;;9.71;100.00;100655.09;10401120;28;19948;-65
2023/03/22 03:32:41;;;;;;;;;;;;;;;9.73;100.00;100661.91;10376490;28;19936;-65
2023/03/22 03:37:46;;;;;;;;;;;;;;;9.81;100.00;100654.50;10375977;28;20369;-65
2023/03/22 03:42:49;;;;;;;;;;;;;;;9.92;100.00;100653.91;10376548;28;20395;-65
2023/03/22 03:47:55;;;;;;;;;;;;;;;9.78;100.00;100644.19;10376275;28;19951;-65
2023/03/22 03:52:58;;;;;;;;;;;;;;;10.10;100.00;100651.16;10376115;28;20368;-65
2023/03/22 03:58:00;;;;;;;;;;;;;;;9.95;100.00;100645.88;10375937;28;19949;-65
2023/03/22 04:03:03;;;;;;;;;;;;;;;9.89;100.00;100646.22;10377125;28;19972;-65
2023/03/22 04:08:05;;;;;;;;;;;;;;;9.81;100.00;100649.25;10375653;28;19926;-65
2023/03/22 04:13:07;;;;;;;;;;;;;;;9.76;100.00;100648.69;10376365;28;19933;-65
2023/03/22 04:18:10;;;;;;;;;;;;;;;9.74;100.00;100650.53;10375272;28;20328;-65
2023/03/22 04:23:12;;;;;;;;;;;;;;;9.68;100.00;100645.66;10376349;28;20431;-65
2023/03/22 04:28:14;;;;;;;;;;;;;;;9.59;100.00;100640.94;10375568;28;19937;-65
2023/03/22 04:33:17;;;;;;;;;;;;;;;9.70;100.00;100630.75;10406731;28;19925;-65
2023/03/22 04:38:19;;;;;;;;;;;;;;;9.64;100.00;100626.69;10397828;28;20332;-65
2023/03/22 04:43:24;;;;;;;;;;;;;;;9.48;100.00;100631.06;10416343;28;19948;-65
2023/03/22 04:48:28;;;;;;;;;;;;;;;9.48;100.00;100626.72;10415000;28;19971;-65
2023/03/22 04:53:30;;;;;;;;;;;;;;;9.33;100.00;100635.41;10415964;28;20395;-65
2023/03/22 04:58:34;;;;;;;;;;;;;;;9.36;100.00;100613.47;10414820;28;19929;-65
2023/03/22 05:03:36;;;;;;;;;;;;;;;9.19;100.00;100623.06;10398959;28;19956;-65
2023/03/22 05:08:38;;;;;;;;;;;;;;;9.26;100.00;100608.75;10397006;28;19947;-65
2023/03/22 05:13:41;;;;;;;;;;;;;;;9.44;100.00;100619.13;10398088;28;19932;-65
2023/03/22 05:18:44;;;;;;;;;;;;;;;9.25;100.00;100614.91;10414754;28;19929;-65
2023/03/22 05:23:46;;;;;;;;;;;;;;;9.39;100.00;100621.97;10414612;28;19929;-65
2023/03/22 05:28:52;;;;;;;;;;;;;;;9.51;100.00;100620.44;10399633;28;19960;-65
2023/03/22 05:33:55;;;;;;;;;;;;;;;9.39;100.00;100605.47;10421691;28;19929;-65
2023/03/22 05:38:57;;;;;;;;;;;;;;;9.51;100.00;100611.78;10422840;28;19992;-65
2023/03/22 05:43:59;;;;;;;;;;;;;;;9.49;100.00;100604.84;10405713;28;19925;-65
2023/03/22 05:49:02;;;;;;;;;;;;;;;9.59;100.00;100602.56;10423736;28;19925;-65
2023/03/22 05:54:06;;;;;;;;;;;;;;;9.36;100.00;100610.84;10421646;28;19925;-65
2023/03/22 05:59:08;;;;;;;;;;;;;;;9.54;100.00;100604.59;10423319;28;19925;-65
2023/03/22 06:04:10;;;;;;;;;;;;;;;9.57;100.00;100593.97;10419962;28;19926;-65
2023/03/22 06:09:13;;;;;;;;;;;;;;;9.43;100.00;100599.13;10422895;28;19925;-69
2023/03/22 06:14:19;;;;;;;;;;;;;;;9.43;100.00;100593.91;10421279;28;20315;-65
2023/03/22 06:19:21;;;;;;;;;;;;;;;9.54;100.00;100588.91;10422531;28;19933;-69
2023/03/22 06:24:23;;;;;;;;;;;;;;;9.49;100.00;100593.56;10421204;28;19929;-66
2023/03/22 06:29:26;;;;;;;;;;;;;;;9.51;100.00;100580.41;10421816;28;19982;-67
2023/03/22 06:34:28;;;;;;;;;;;;;;;9.63;100.00;100588.41;10403324;28;19925;-66
2023/03/22 06:39:30;;;;;;;;;;;;;;;9.73;100.00;100587.88;10404333;28;19979;-66
2023/03/22 06:44:33;;;;;;;;;;;;;;;9.53;100.00;100583.78;10419340;28;20293;-68
2023/03/22 06:49:35;;;;;;;;;;;;;;;9.86;100.00;100581.00;10403132;28;19932;-65
2023/03/22 06:54:37;;;;;;;;;;;;;;;9.93;100.00;100579.72;10419830;28;20277;-65
2023/03/22 06:59:39;;;;;;;;;;;;;;;10.22;100.00;100577.16;10414426;28;19925;-65
2023/03/22 07:04:41;;;;;;;;;;;;;;;9.99;100.00;100587.22;10418263;28;20319;-65
2023/03/22 07:09:44;;;;;;;;;;;;;;;10.23;100.00;100577.06;10420534;28;19976;-65
2023/03/22 07:14:46;;;;;;;;;;;;;;;10.45;100.00;100583.69;10402844;28;19929;-65
2023/03/22 07:19:48;;;;;;;;;;;;;;;10.74;100.00;100584.53;10420179;28;19932;-65
2023/03/22 07:24:50;;;;;;;;;;;;;;;10.80;100.00;100585.09;10419439;28;19987;-65
2023/03/22 07:29:59;;;;;;;;;;;;;;;11.09;99.19;100596.38;10402932;28;19932;-65
2023/03/22 07:35:01;;;;;;;;;;;;;;;11.04;98.16;100585.34;10419683;28;19925;-65
2023/03/22 07:40:04;;;;;;;;;;;;;;;10.78;97.88;100577.34;10418825;28;19925;-66
2023/03/22 07:45:07;;;;;;;;;;;;;;;10.74;100.00;100592.41;10418626;28;20047;-65
2023/03/22 07:50:12;;;;;;;;;;;;;;;10.64;100.00;100593.91;10418975;28;19929;-65
2023/03/22 07:55:14;;;;;;;;;;;;;;;10.57;100.00;100590.81;10417654;28;19932;-65
2023/03/22 08:00:17;;;;;;;;;;;;;;;10.73;97.27;100590.72;10418043;28;19983;-65
2023/03/22 08:05:21;;;;;;;;;;;;;;;10.73;96.92;100593.31;10400244;28;19932;-65
2023/03/22 08:10:23;;;;;;;;;;;;;;;10.85;95.12;100602.19;10417498;28;19929;-65
2023/03/22 08:15:25;;;;;;;;;;;;;;;11.20;94.33;100586.06;10417967;28;19979;-65
2023/03/22 08:20:28;;;;;;;;;;;;;;;11.34;93.22;100587.78;10400327;28;19980;-65
2023/03/22 08:25:32;;;;;;;;;;;;;;;11.19;93.29;100592.22;10417657;28;19925;-65
2023/03/22 08:30:34;;;;;;;;;;;;;;;11.03;92.93;100591.50;10380916;28;20335;-65
2023/03/22 08:35:36;;;;;;;;;;;;;;;11.54;91.20;100597.00;10397606;28;19951;-65
2023/03/22 08:40:39;;;;;;;;;;;;;;;11.84;89.24;100583.66;10416520;28;20012;-65
2023/03/22 08:45:42;;;;;;;;;;;;;;;12.30;87.17;100568.44;10429809;22;19972;-65
2023/03/22 08:50:44;;;;;;;;;;;;;;;11.82;84.56;100577.69;10398528;28;19935;-65
2023/03/22 08:55:47;;;;;;;;;;;;;;;12.39;84.55;100565.16;10415801;28;19926;-65
2023/03/22 09:00:49;;;;;;;;;;;;;;;11.99;82.94;100575.78;10415966;28;19925;-65
2023/03/22 09:05:51;;;;;;;;;;;;;;;12.89;82.82;100565.22;10415553;28;19971;-65
2023/03/22 09:10:54;;;;;;;;;;;;;;;13.29;80.72;100572.88;10415621;28;19925;-65
2023/03/22 09:15:56;;;;;;;;;;;;;;;13.25;79.05;100579.34;10414593;28;20319;-65
2023/03/22 09:20:59;;;;;;;;;;;;;;;13.42;78.98;100563.19;10415409;28;20475;-65
2023/03/22 09:26:02;;;;;;;;;;;;;;;13.37;77.67;100560.88;10415177;28;19929;-65
2023/03/22 09:31:06;;;;;;;;;;;;;;;13.06;78.15;100545.63;10396883;28;19932;-65
2023/03/22 09:36:08;;;;;;;;;;;;;;;13.29;76.22;100547.44;10411692;28;19964;-65
2023/03/22 09:41:24;;;;;;;;;;;;;;;12.83;76.79;100542.88;10421681;28;19975;-65
2023/03/22 09:46:31;;;;;;;;;;;;;;;12.96;77.69;100554.19;10394048;28;19929;-65
2023/03/22 09:51:37;;;;;;;;;;;;;;;12.83;76.75;100572.59;10406391;28;19925;-65
2023/03/22 09:56:39;;;;;;;;;;;;;;;12.64;77.16;100562.53;10407158;28;20307;-65
2023/03/22 10:01:44;;;;;;;;;;;;;;;12.55;77.71;100536.09;10394391;28;19925;-65
2023/03/22 10:06:48;;;;;;;;;;;;;;;12.77;79.12;100553.78;10393397;28;20369;-65
2023/03/22 10:12:08;;;;;;;;;;;;;;;12.41;77.59;100552.81;10409732;28;20349;-65
2023/03/22 10:17:12;;;;;;;;;;;;;;;12.38;77.47;100545.97;10417530;28;19925;-65
2023/03/22 10:22:15;;;;;;;;;;;;;;;12.43;77.49;100541.22;10404194;28;19947;-65
2023/03/22 10:27:19;;;;;;;;;;;;;;;12.62;77.25;100537.31;10422247;28;19925;-65
2023/03/22 10:32:28;;;;;;;;;;;;;;;12.38;76.99;100550.38;10421684;28;19925;-65
2023/03/22 10:37:31;;;;;;;;;;;;;;;12.16;78.18;100545.75;10403832;28;19948;-65
2023/03/22 10:42:35;;;;;;;;;;;;;;;12.30;78.17;100553.53;10421606;28;20024;-65
2023/03/22 10:47:44;;;;;;;;;;;;;;;12.47;82.08;100552.34;10370784;28;19925;-65
2023/03/22 10:52:50;;;;;;;;;;;;;;;11.95;86.43;100571.66;10403847;28;20028;-65
2023/03/22 10:58:05;;;;;;;;;;;;;;;11.56;88.50;100570.69;10420551;28;19971;-65
2023/03/22 11:03:08;;;;;;;;;;;;;;;11.76;91.72;100572.84;10420958;28;19925;-65
2023/03/22 11:08:12;;;;;;;;;;;;;;;11.49;93.20;100580.72;10420738;28;19932;-65
2023/03/22 11:13:20;;;;;;;;;;;;;;;11.65;95.24;100576.19;10420472;28;19987;-65
2023/03/22 11:18:22;;;;;;;;;;;;;;;11.77;96.19;100585.03;10420289;28;19925;-65
2023/03/22 11:23:25;;;;;;;;;;;;;;;11.58;94.91;100581.91;10402573;28;19925;-65
2023/03/22 11:28:31;;;;;;;;;;;;;;;11.70;97.26;100568.84;10418844;28;19940;-65
2023/03/22 11:33:34;;;;;;;;;;;;;;;11.78;98.70;100586.69;10419703;28;19929;-65
2023/03/22 11:38:37;;;;;;;;;;;;;;;11.61;99.26;100582.56;10401401;28;19925;-65
2023/03/22 11:43:43;;;;;;;;;;;;;;;12.00;98.71;100561.69;10419049;28;19925;-65
2023/03/22 11:48:46;;;;;;;;;;;;;;;11.85;98.47;100572.25;10402052;28;19929;-65
2023/03/22 11:53:48;;;;;;;;;;;;;;;11.94;96.74;100564.75;10418243;28;19924;-65
2023/03/22 11:58:54;;;;;;;;;;;;;;;12.55;95.92;100555.28;10401371;28;19925;-65
2023/03/22 12:03:56;;;;;;;;;;;;;;;12.17;94.50;100563.19;10418311;28;19932;-65
2023/03/22 12:09:04;;;;;;;;;;;;;;;12.34;94.66;100555.00;10418125;28;19960;-65
2023/03/22 12:14:11;;;;;;;;;;;;;;;11.96;91.63;100560.22;10399957;28;19926;-65
2023/03/22 12:19:32;;;;;;;;;;;;;;;11.84;93.85;100525.97;10399867;28;20332;-65
2023/03/22 12:24:34;;;;;;;;;;;;;;;12.18;94.50;100538.63;10417735;28;19925;-65
2023/03/22 12:29:38;;;;;;;;;;;;;;;12.17;92.25;100532.53;10416958;28;19932;-65
2023/03/22 12:34:41;;;;;;;;;;;;;;;11.89;91.58;100526.50;10399441;28;19932;-65
2023/03/22 12:39:47;;;;;;;;;;;;;;;11.96;91.37;100547.94;10416771;28;19951;-65
2023/03/22 12:44:50;;;;;;;;;;;;;;;12.00;91.40;100549.44;10399300;28;19925;-65
2023/03/22 12:50:07;;;;;;;;;;;;;;;11.98;92.46;100548.66;10416937;28;19933;-65
2023/03/22 12:55:16;;;;;;;;;;;;;;;11.94;92.48;100551.63;10416593;28;19929;-65
2023/03/22 13:00:19;;;;;;;;;;;;;;;11.77;91.06;100544.81;10399067;28;19932;-65
2023/03/22 13:05:21;;;;;;;;;;;;;;;11.76;90.80;100546.63;10399049;28;19984;-65
2023/03/22 13:10:24;;;;;;;;;;;;;;;11.88;91.13;100537.94;10398063;28;19925;-65
2023/03/22 13:15:36;;;;;;;;;;;;;;;11.95;91.42;100540.16;10416123;28;19929;-65
2023/03/22 13:20:43;;;;;;;;;;;;;;;11.75;90.51;100541.47;10398692;28;20384;-65
2023/03/22 13:25:58;;;;;;;;;;;;;;;11.81;90.62;100527.94;10381504;28;20339;-65
2023/03/22 13:31:01;;;;;;;;;;;;;;;11.92;90.77;100528.13;10415787;28;19979;-65
2023/03/22 13:36:22;;;;;;;;;;;;;;;11.86;90.62;100531.09;10415665;28;19979;-66
2023/03/22 13:41:28;;;;;;;;;;;;;;;11.90;89.93;100536.06;10415562;28;19925;-65
2023/03/22 13:46:37;;;;;;;;;;;;;;;11.95;90.91;100529.69;10397512;28;19925;-65
2023/03/22 13:51:39;;;;;;;;;;;;;;;11.83;90.04;100540.00;10418018;28;19975;-66
2023/03/22 13:56:51;;;;;;;;;;;;;;;12.00;90.02;100536.31;10405201;28;19932;-65
2023/03/22 14:01:53;;;;;;;;;;;;;;;11.84;90.12;100523.34;10423317;28;19932;-65
2023/03/22 14:06:58;;;;;;;;;;;;;;;11.87;90.83;100535.44;10423053;28;19929;-65
2023/03/22 14:12:21;;;;;;;;;;;;;;;11.97;92.42;100538.28;10422960;28;19925;-65
2023/03/22 14:17:42;;;;;;;;;;;;;;;11.76;92.31;100536.13;10382313;28;19929;-65
2023/03/22 14:22:46;;;;;;;;;;;;;;;11.77;94.40;100537.81;10404291;28;20390;-65
2023/03/22 14:27:47;;;;;;;;;;;;;;;12.04;93.32;100529.06;10422363;28;19917;-65
2023/03/22 14:32:48;;;;;;;;;;;;;;;11.92;96.13;100522.00;10422130;28;19963;-65
2023/03/22 14:37:49;;;;;;;;;;;;;;;11.83;99.01;100524.28;10403732;28;19917;-65
2023/03/22 14:42:50;;;;;;;;;;;;;;;11.90;99.36;100524.69;10421215;28;19917;-66
2023/03/22 14:47:52;;;;;;;;;;;;;;;11.84;100.00;100514.63;10420994;28;20455;-70
2023/03/22 14:52:54;;;;;;;;;;;;;;;11.70;100.00;100513.78;10403039;28;19925;-65
2023/03/22 14:57:59;;;;;;;;;;;;;;;12.06;100.00;100506.19;10402549;28;19925;-66
2023/03/22 15:03:01;;;;;;;;;;;;;;;11.87;100.00;100504.78;10402989;28;19929;-65
2023/03/22 15:08:07;;;;;;;;;;;;;;;12.30;100.00;100492.31;10403389;28;19932;-65
2023/03/22 15:13:09;;;;;;;;;;;;;;;11.94;100.00;100489.50;10420577;28;19929;-65
2023/03/22 15:18:14;;;;;;;;;;;;;;;12.22;100.00;100498.09;10402146;28;19952;-66
2023/03/22 15:23:16;;;;;;;;;;;;;;;11.89;100.00;100502.88;10402676;28;19929;-65
2023/03/22 15:28:19;;;;;;;;;;;;;;;11.82;100.00;100498.16;10420027;28;19925;-65
2023/03/22 15:33:22;;;;;;;;;;;;;;;11.67;100.00;100492.16;10402429;28;19932;-65
2023/03/22 15:38:28;;;;;;;;;;;;;;;11.86;100.00;100484.72;10401465;28;19929;-65
2023/03/22 15:43:33;;;;;;;;;;;;;;;11.76;100.00;100477.59;10401814;28;19925;-65
2023/03/22 15:48:45;;;;;;;;;;;;;;;12.04;100.00;100474.78;10418494;28;19925;-65
2023/03/22 15:53:46;;;;;;;;;;;;;;;12.24;100.00;100472.59;10400638;28;20359;-65
2023/03/22 15:58:56;;;;;;;;;;;;;;;11.90;100.00;100474.84;10400557;28;19925;-65
2023/03/22 16:03:58;;;;;;;;;;;;;;;11.93;100.00;100468.59;10400962;28;19925;-65
2023/03/22 16:09:00;;;;;;;;;;;;;;;11.73;100.00;100483.88;10418405;28;19925;-65
2023/03/22 16:14:01;;;;;;;;;;;;;;;11.63;100.00;100488.91;10416907;28;20408;-65
2023/03/22 16:19:04;;;;;;;;;;;;;;;11.62;100.00;100505.56;10416969;28;21447;-65
2023/03/22 16:24:06;;;;;;;;;;;;;;;11.75;100.00;100500.38;10397472;28;19936;-65
2023/03/22 16:29:07;;;;;;;;;;;;;;;11.45;100.00;100490.97;10388793;28;19925;-65
2023/03/22 16:34:09;;;;;;;;;;;;;;;11.48;100.00;100503.00;10452922;28;19924;-65
2023/03/22 16:39:10;;;;;;;;;;;;;;;11.46;100.00;100491.78;10419199;28;19947;-66
2023/03/22 16:44:14;;;;;;;;;;;;;;;11.39;100.00;100495.78;10413419;28;19926;-65
2023/03/22 16:49:15;;;;;;;;;;;;;;;11.13;100.00;100493.91;10397965;28;19925;-65
2023/03/22 16:54:16;;;;;;;;;;;;;;;11.10;100.00;100496.72;10416695;28;19932;-64
2023/03/22 16:59:17;;;;;;;;;;;;;;;11.13;100.00;100488.66;10416068;28;19929;-64
2023/03/22 17:04:18;;;;;;;;;;;;;;;10.95;100.00;100493.28;10374081;28;20396;-65
2023/03/22 17:09:20;;;;;;;;;;;;;;;11.00;100.00;100477.28;10395889;28;19968;-64
2023/03/22 17:14:21;;;;;;;;;;;;;;;10.89;100.00;100467.50;10414693;28;20337;-65
2023/03/22 17:19:22;;;;;;;;;;;;;;;10.90;100.00;100471.78;10398205;28;20019;-64
2023/03/22 17:24:23;;;;;;;;;;;;;;;10.83;100.00;100481.00;10398392;28;20455;-65
2023/03/22 17:29:24;;;;;;;;;;;;;;;10.91;100.00;100470.88;10417314;28;20056;-64
2023/03/22 17:34:26;;;;;;;;;;;;;;;10.95;100.00;100468.88;10397694;28;19949;-64
2023/03/22 17:39:34;;;;;;;;;;;;;;;10.91;100.00;100465.63;10383159;28;19925;-64
2023/03/22 17:44:36;;;;;;;;;;;;;;;10.75;100.00;100467.53;10380248;28;20056;-65
2023/03/22 17:49:40;;;;;;;;;;;;;;;10.75;100.00;100486.69;10357671;28;19929;-65
2023/03/22 17:54:42;;;;;;;;;;;;;;;10.75;100.00;100485.88;10381517;28;19925;-65
2023/03/22 17:59:43;;;;;;;;;;;;;;;10.72;100.00;100481.66;10382463;28;19974;-65
2023/03/22 18:04:44;;;;;;;;;;;;;;;10.81;100.00;100475.00;10378883;28;19929;-65
2023/03/22 18:09:45;;;;;;;;;;;;;;;10.90;100.00;100490.13;10364083;28;19930;-65
2023/03/22 18:14:47;;;;;;;;;;;;;;;10.97;100.00;100480.94;10363773;28;19925;-65
2023/03/22 18:19:48;;;;;;;;;;;;;;;10.83;100.00;100488.84;10380203;28;19925;-65
2023/03/22 18:24:50;;;;;;;;;;;;;;;10.96;100.00;100481.88;10379439;28;19926;-65
2023/03/22 18:29:51;;;;;;;;;;;;;;;10.82;100.00;100481.09;10362253;28;19926;-65
2023/03/22 18:34:52;;;;;;;;;;;;;;;10.86;100.00;100488.66;10380727;28;19932;-64
2023/03/22 18:39:53;;;;;;;;;;;;;;;10.74;100.00;100463.22;10380009;28;20329;-65
2023/03/22 18:44:55;;;;;;;;;;;;;;;10.75;100.00;100462.31;10379221;28;19992;-65
2023/03/22 18:49:56;;;;;;;;;;;;;;;10.71;100.00;100466.91;10380130;28;19929;-64
2023/03/22 18:54:57;;;;;;;;;;;;;;;10.60;100.00;100458.88;10377727;28;19926;-65
2023/03/22 18:59:59;;;;;;;;;;;;;;;10.88;100.00;100451.91;10379806;28;19965;-64
2023/03/22 19:05:00;;;;;;;;;;;;;;;10.82;100.00;100454.91;10379579;28;20412;-65
2023/03/22 19:10:02;;;;;;;;;;;;;;;10.79;100.00;100448.06;10379336;28;19926;-64
2023/03/22 19:15:04;;;;;;;;;;;;;;;10.57;100.00;100456.44;10378938;28;20332;-65
2023/03/22 19:20:08;;;;;;;;;;;;;;;10.48;100.00;100438.72;10344468;28;19937;-64
2023/03/22 19:25:09;;;;;;;;;;;;;;;10.46;100.00;100423.09;10359578;28;20436;-64
2023/03/22 19:30:12;;;;;;;;;;;;;;;10.48;100.00;100412.53;10360761;28;19925;-64
2023/03/22 19:35:13;;;;;;;;;;;;;;;10.60;100.00;100422.22;10378125;28;20411;-65
2023/03/22 19:40:15;;;;;;;;;;;;;;;10.59;100.00;100431.88;10377131;28;20373;-64
2023/03/22 19:45:16;;;;;;;;;;;;;;;10.56;100.00;100415.50;10387650;28;20308;-64
2023/03/22 19:50:17;;;;;;;;;;;;;;;10.67;100.00;100427.91;10403662;28;20408;-65
2023/03/22 19:55:19;;;;;;;;;;;;;;;10.58;100.00;100416.25;10396237;28;20030;-65
2023/03/22 20:00:20;;;;;;;;;;;;;;;10.58;100.00;100411.00;10418852;28;19925;-65
2023/03/22 20:05:21;;;;;;;;;;;;;;;10.74;100.00;100401.25;10418078;28;20335;-65
2023/03/22 20:10:22;;;;;;;;;;;;;;;10.74;100.00;100405.63;10404037;28;19929;-64
2023/03/22 20:15:24;;;;;;;;;;;;;;;10.79;100.00;100408.78;10391975;28;19926;-64
2023/03/22 20:20:25;;;;;;;;;;;;;;;10.82;100.00;100408.59;10375287;28;20441;-64
2023/03/22 20:25:26;;;;;;;;;;;;;;;10.89;100.00;100409.91;10384324;28;19929;-64
2023/03/22 20:30:27;;;;;;;;;;;;;;;10.72;100.00;100416.19;10409694;28;19930;-64
2023/03/22 20:35:28;;;;;;;;;;;;;;;10.78;100.00;100404.50;10375913;28;20439;-64
2023/03/22 20:40:30;;;;;;;;;;;;;;;10.94;100.00;100384.25;10396477;28;19925;-64
2023/03/22 20:45:32;;;;;;;;;;;;;;;10.74;100.00;100389.91;10416272;28;20392;-64
2023/03/22 20:50:33;;;;;;;;;;;;;;;10.87;100.00;100393.41;10358553;28;19925;-64
2023/03/22 20:55:34;;;;;;;;;;;;;;;10.87;100.00;100382.94;10375291;28;20423;-64
2023/03/22 21:00:35;;;;;;;;;;;;;;;10.91;100.00;100365.25;10456090;23;20019;-64
2023/03/22 21:05:37;;;;;;;;;;;;;;;10.91;100.00;100366.09;10531760;28;19935;-64
2023/03/22 21:10:38;;;;;;;;;;;;;;;10.80;100.00;100357.28;10539222;28;19931;-64
2023/03/22 21:15:40;;;;;;;;;;;;;;;10.77;100.00;100361.75;10539093;28;19924;-63
2023/03/22 21:20:41;;;;;;;;;;;;;;;10.90;100.00;100350.47;10486591;28;19924;-64
2023/03/22 21:25:42;;;;;;;;;;;;;;;10.84;100.00;100325.53;10539868;28;19931;-64
2023/03/22 21:30:44;;;;;;;;;;;;;;;10.83;100.00;100344.81;10533088;28;19924;-64
2023/03/22 21:35:45;;;;;;;;;;;;;;;10.88;100.00;100340.09;10539650;28;20383;-64
2023/03/22 21:40:49;;;;;;;;;;;;;;;10.87;100.00;100335.81;10522168;28;19924;-64
2023/03/22 21:45:53;;;;;;;;;;;;;;;10.72;100.00;100319.31;10539368;28;20378;-64
2023/03/22 21:50:55;;;;;;;;;;;;;;;10.93;100.00;100326.72;10518338;28;19924;-64
2023/03/22 21:55:56;;;;;;;;;;;;;;;10.76;100.00;100314.75;10536383;28;19946;-64
2023/03/22 22:00:57;;;;;;;;;;;;;;;10.82;100.00;100303.84;10537358;28;19935;-64
2023/03/22 22:05:59;;;;;;;;;;;;;;;10.96;100.00;100306.41;10518136;28;19928;-64
2023/03/22 22:11:02;;;;;;;;;;;;;;;10.87;100.00;100296.50;10516652;28;19935;-64
2023/03/22 22:16:05;;;;;;;;;;;;;;;10.88;100.00;100306.06;10545116;28;19978;-64
2023/03/22 22:21:10;;;;;;;;;;;;;;;10.89;100.00;100299.03;10544655;28;19924;-64
2023/03/22 22:26:12;;;;;;;;;;;;;;;10.89;100.00;100296.41;10526619;28;19970;-64
2023/03/22 22:31:24;;;;;;;;;;;;;;;11.02;100.00;100302.50;10546195;28;20012;-65
2023/03/22 22:36:29;;;;;;;;;;;;;;;10.83;100.00;100278.50;10545249;28;19924;-64
2023/03/22 22:41:30;;;;;;;;;;;;;;;10.93;100.00;100284.81;10525144;28;19977;-64
2023/03/22 22:46:31;;;;;;;;;;;;;;;10.97;100.00;100274.00;10521875;28;20434;-64
2023/03/22 22:51:32;;;;;;;;;;;;;;;10.92;100.00;100275.25;10515555;28;20043;-64
2023/03/22 22:56:35;;;;;;;;;;;;;;;10.90;100.00;100272.75;10521880;28;19924;-64
2023/03/22 23:01:36;;;;;;;;;;;;;;;10.84;100.00;100278.38;10544356;28;19928;-64
2023/03/22 23:06:38;;;;;;;;;;;;;;;10.81;100.00;100289.09;10510130;28;20298;-64
2023/03/22 23:11:39;;;;;;;;;;;;;;;10.94;100.00;100276.84;10544624;28;20267;-64
2023/03/22 23:16:45;;;;;;;;;;;;;;;10.92;100.00;100268.22;10544133;28;20014;-64
2023/03/22 23:21:46;;;;;;;;;;;;;;;10.95;100.00;100270.66;10545019;28;19928;-64
2023/03/22 23:26:47;;;;;;;;;;;;;;;10.78;100.00;100248.22;10525815;28;19924;-64
2023/03/22 23:31:49;;;;;;;;;;;;;;;11.07;100.00;100227.06;10543052;28;20371;-64
2023/03/22 23:36:50;;;;;;;;;;;;;;;10.90;100.00;100228.22;10525687;28;19924;-64
2023/03/22 23:41:51;;;;;;;;;;;;;;;10.90;100.00;100219.53;10525434;28;20288;-64
2023/03/22 23:46:52;;;;;;;;;;;;;;;11.06;100.00;100204.47;10542524;28;19931;-64
2023/03/22 23:51:54;;;;;;;;;;;;;;;10.95;100.00;100207.78;10542156;28;19932;-64
2023/03/22 23:56:55;;;;;;;;;;;;;;;10.95;100.00;100218.28;10542336;28;20375;-64
